Terminal Aerodrome Forecast
Issued by NWS

Home | Current Version | Previous Version | Graphics & Text | Print | Product List | Glossary Off
Versions: 1 2 3 4 5 6 7 8 9 10 11 12 13 14 15 16 17 18 19 20

000
FTUS43 KGRB 292320
TAFMTW
TAF
KMTW 292320Z 3000/3024 28010G18KT P6SM SCT060
     FM300200 25007KT P6SM SCT045
     FM300500 26005KT P6SM FEW200
     FM301600 29008KT P6SM FEW250=

USA.gov is the U.S. government's official web portal to all federal, state and local government web resources and services.